Terminal Aerodrome Forecast
Issued by NWS Cleveland, OH

Home | Current Version | Previous Version | Text Only | Print | Product List | Glossary On
Versions: 1 2 3 4 5 6 7 8 9 10 11 12 13 14 15 16 17 18 19 20
830
FTUS41 KCLE 292046 AAB
TAFCAK
TAF AMD
KCAK 292046Z 2921/3018 24011KT P6SM VCSH SCT040 BKN090
     FM300000 22007KT P6SM SCT090
     FM300800 22005KT P6SM VCSH SCT050 BKN150
     FM301200 23010KT P6SM SCT150=

USA.gov is the U.S. government's official web portal to all federal, state and local government web resources and services.